sensor_id;sensor_type;location;lat;lon;timestamp;temperature;humidity
14079;DHT22;7115;50.150;8.568;2023-05-07T00:01:39;18.50;97.20
14079;DHT22;7115;50.150;8.568;2023-05-07T00:04:07;18.50;97.30
14079;DHT22;7115;50.150;8.568;2023-05-07T00:06:34;18.40;97.40
14079;DHT22;7115;50.150;8.568;2023-05-07T00:09:02;18.40;97.50
14079;DHT22;7115;50.150;8.568;2023-05-07T00:11:30;18.30;97.60
14079;DHT22;7115;50.150;8.568;2023-05-07T00:13:57;18.30;97.70
14079;DHT22;7115;50.150;8.568;2023-05-07T00:16:24;18.20;97.70
14079;DHT22;7115;50.150;8.568;2023-05-07T00:18:52;18.20;97.80
14079;DHT22;7115;50.150;8.568;2023-05-07T00:21:20;18.20;97.90
14079;DHT22;7115;50.150;8.568;2023-05-07T00:23:48;18.20;97.90
14079;DHT22;7115;50.150;8.568;2023-05-07T00:26:14;18.20;97.90
14079;DHT22;7115;50.150;8.568;2023-05-07T00:28:41;18.20;98.00
14079;DHT22;7115;50.150;8.568;2023-05-07T00:31:09;18.20;98.00
14079;DHT22;7115;50.150;8.568;2023-05-07T00:33:36;18.20;98.00
14079;DHT22;7115;50.150;8.568;2023-05-07T00:36:03;18.20;98.10
14079;DHT22;7115;50.150;8.568;2023-05-07T00:38:31;18.20;98.10
14079;DHT22;7115;50.150;8.568;2023-05-07T00:40:58;18.20;98.20
14079;DHT22;7115;50.150;8.568;2023-05-07T00:43:25;18.20;98.30
14079;DHT22;7115;50.150;8.568;2023-05-07T00:45:52;18.10;98.30
14079;DHT22;7115;50.150;8.568;2023-05-07T00:48:19;18.20;98.40
14079;DHT22;7115;50.150;8.568;2023-05-07T00:50:46;18.10;98.50
14079;DHT22;7115;50.150;8.568;2023-05-07T00:53:14;18.10;98.40
14079;DHT22;7115;50.150;8.568;2023-05-07T00:55:42;18.20;98.40
14079;DHT22;7115;50.150;8.568;2023-05-07T00:58:09;18.10;98.30
14079;DHT22;7115;50.150;8.568;2023-05-07T01:00:36;18.20;98.30
14079;DHT22;7115;50.150;8.568;2023-05-07T01:03:03;18.10;98.20
14079;DHT22;7115;50.150;8.568;2023-05-07T01:05:31;18.10;98.20
14079;DHT22;7115;50.150;8.568;2023-05-07T01:08:00;18.10;98.20
14079;DHT22;7115;50.150;8.568;2023-05-07T01:10:28;18.10;98.20
14079;DHT22;7115;50.150;8.568;2023-05-07T01:12:58;18.10;98.30
14079;DHT22;7115;50.150;8.568;2023-05-07T01:15:26;18.10;98.20
14079;DHT22;7115;50.150;8.568;2023-05-07T01:17:54;18.10;98.20
14079;DHT22;7115;50.150;8.568;2023-05-07T01:20:23;18.10;98.20
14079;DHT22;7115;50.150;8.568;2023-05-07T01:22:51;18.10;98.10
14079;DHT22;7115;50.150;8.568;2023-05-07T01:25:18;18.10;98.10
14079;DHT22;7115;50.150;8.568;2023-05-07T01:27:46;18.20;98.10
14079;DHT22;7115;50.150;8.568;2023-05-07T01:30:13;18.10;98.00
14079;DHT22;7115;50.150;8.568;2023-05-07T01:32:43;18.10;98.00
14079;DHT22;7115;50.150;8.568;2023-05-07T01:35:12;18.20;98.00
14079;DHT22;7115;50.150;8.568;2023-05-07T01:37:40;18.10;98.00
14079;DHT22;7115;50.150;8.568;2023-05-07T01:40:10;18.10;98.00
14079;DHT22;7115;50.150;8.568;2023-05-07T01:42:38;18.10;97.90
14079;DHT22;7115;50.150;8.568;2023-05-07T01:45:06;18.10;97.90
14079;DHT22;7115;50.150;8.568;2023-05-07T01:47:33;18.10;97.90
14079;DHT22;7115;50.150;8.568;2023-05-07T01:50:01;18.10;97.80
14079;DHT22;7115;50.150;8.568;2023-05-07T01:52:29;18.10;97.80
14079;DHT22;7115;50.150;8.568;2023-05-07T01:54:56;18.10;97.80
14079;DHT22;7115;50.150;8.568;2023-05-07T01:57:24;18.10;97.80
14079;DHT22;7115;50.150;8.568;2023-05-07T01:59:51;18.10;97.70
14079;DHT22;7115;50.150;8.568;2023-05-07T02:02:18;18.10;97.70
14079;DHT22;7115;50.150;8.568;2023-05-07T02:04:45;18.10;97.70
14079;DHT22;7115;50.150;8.568;2023-05-07T02:07:12;18.20;97.70
14079;DHT22;7115;50.150;8.568;2023-05-07T02:09:39;18.10;97.70
14079;DHT22;7115;50.150;8.568;2023-05-07T02:12:06;18.20;97.70
14079;DHT22;7115;50.150;8.568;2023-05-07T02:14:34;18.10;97.60
14079;DHT22;7115;50.150;8.568;2023-05-07T02:17:01;18.10;97.60
14079;DHT22;7115;50.150;8.568;2023-05-07T02:19:28;18.10;97.60
14079;DHT22;7115;50.150;8.568;2023-05-07T02:21:54;18.10;97.50
14079;DHT22;7115;50.150;8.568;2023-05-07T02:24:21;18.10;97.50
14079;DHT22;7115;50.150;8.568;2023-05-07T02:26:48;18.20;97.50
14079;DHT22;7115;50.150;8.568;2023-05-07T02:29:15;18.10;97.40
14079;DHT22;7115;50.150;8.568;2023-05-07T02:31:43;18.10;97.50
14079;DHT22;7115;50.150;8.568;2023-05-07T02:34:10;18.10;97.40
14079;DHT22;7115;50.150;8.568;2023-05-07T02:36:37;18.20;97.50
14079;DHT22;7115;50.150;8.568;2023-05-07T02:39:04;18.10;97.40
14079;DHT22;7115;50.150;8.568;2023-05-07T02:41:31;18.10;97.40
14079;DHT22;7115;50.150;8.568;2023-05-07T02:43:59;18.20;97.40
14079;DHT22;7115;50.150;8.568;2023-05-07T02:46:26;18.10;97.50
14079;DHT22;7115;50.150;8.568;2023-05-07T02:48:54;18.10;97.50
14079;DHT22;7115;50.150;8.568;2023-05-07T02:51:22;18.10;97.50
14079;DHT22;7115;50.150;8.568;2023-05-07T02:53:51;18.10;97.50
14079;DHT22;7115;50.150;8.568;2023-05-07T02:56:18;18.10;97.60
14079;DHT22;7115;50.150;8.568;2023-05-07T02:58:45;18.10;97.60
14079;DHT22;7115;50.150;8.568;2023-05-07T03:01:12;18.10;97.60
14079;DHT22;7115;50.150;8.568;2023-05-07T03:03:40;18.10;97.60
14079;DHT22;7115;50.150;8.568;2023-05-07T03:06:09;18.10;97.90
14079;DHT22;7115;50.150;8.568;2023-05-07T03:08:36;18.00;97.50
14079;DHT22;7115;50.150;8.568;2023-05-07T03:11:03;18.00;97.60
14079;DHT22;7115;50.150;8.568;2023-05-07T03:13:30;18.10;97.60
14079;DHT22;7115;50.150;8.568;2023-05-07T03:15:57;18.00;97.90
14079;DHT22;7115;50.150;8.568;2023-05-07T03:18:24;18.00;97.50
14079;DHT22;7115;50.150;8.568;2023-05-07T03:20:51;18.00;97.50
14079;DHT22;7115;50.150;8.568;2023-05-07T03:23:20;18.00;97.50
14079;DHT22;7115;50.150;8.568;2023-05-07T03:25:50;18.00;97.50
14079;DHT22;7115;50.150;8.568;2023-05-07T03:28:17;18.00;97.50
14079;DHT22;7115;50.150;8.568;2023-05-07T03:30:44;18.00;97.50
14079;DHT22;7115;50.150;8.568;2023-05-07T03:33:10;18.00;97.50
14079;DHT22;7115;50.150;8.568;2023-05-07T03:35:37;18.00;97.50
14079;DHT22;7115;50.150;8.568;2023-05-07T03:38:04;18.00;97.50
14079;DHT22;7115;50.150;8.568;2023-05-07T03:40:33;18.00;97.50
14079;DHT22;7115;50.150;8.568;2023-05-07T03:43:00;18.00;97.50
14079;DHT22;7115;50.150;8.568;2023-05-07T03:45:27;18.00;97.50
14079;DHT22;7115;50.150;8.568;2023-05-07T03:47:54;18.00;97.50
14079;DHT22;7115;50.150;8.568;2023-05-07T03:50:21;18.00;97.50
14079;DHT22;7115;50.150;8.568;2023-05-07T03:52:48;18.00;97.80
14079;DHT22;7115;50.150;8.568;2023-05-07T03:55:15;18.00;97.40
14079;DHT22;7115;50.150;8.568;2023-05-07T03:57:43;18.00;97.50
14079;DHT22;7115;50.150;8.568;2023-05-07T04:00:11;17.90;97.40
14079;DHT22;7115;50.150;8.568;2023-05-07T04:02:38;17.90;97.40
14079;DHT22;7115;50.150;8.568;2023-05-07T04:05:06;17.90;97.40
14079;DHT22;7115;50.150;8.568;2023-05-07T04:07:32;17.90;97.50
14079;DHT22;7115;50.150;8.568;2023-05-07T04:09:59;17.90;97.50
14079;DHT22;7115;50.150;8.568;2023-05-07T04:12:26;17.90;97.50
14079;DHT22;7115;50.150;8.568;2023-05-07T04:14:54;17.80;97.50
14079;DHT22;7115;50.150;8.568;2023-05-07T04:17:21;17.80;97.60
14079;DHT22;7115;50.150;8.568;2023-05-07T04:19:48;17.80;97.60
14079;DHT22;7115;50.150;8.568;2023-05-07T04:22:15;17.80;97.60
14079;DHT22;7115;50.150;8.568;2023-05-07T04:24:42;17.80;97.70
14079;DHT22;7115;50.150;8.568;2023-05-07T04:27:09;17.70;97.70
14079;DHT22;7115;50.150;8.568;2023-05-07T04:29:36;17.70;97.80
14079;DHT22;7115;50.150;8.568;2023-05-07T04:32:04;17.70;97.90
14079;DHT22;7115;50.150;8.568;2023-05-07T04:34:31;17.70;98.00
14079;DHT22;7115;50.150;8.568;2023-05-07T04:36:59;17.70;98.10
14079;DHT22;7115;50.150;8.568;2023-05-07T04:39:26;17.70;98.10
14079;DHT22;7115;50.150;8.568;2023-05-07T04:41:53;17.70;98.20
14079;DHT22;7115;50.150;8.568;2023-05-07T04:44:19;17.60;98.10
14079;DHT22;7115;50.150;8.568;2023-05-07T04:46:46;17.70;98.20
14079;DHT22;7115;50.150;8.568;2023-05-07T04:49:14;17.60;98.10
14079;DHT22;7115;50.150;8.568;2023-05-07T04:51:42;17.70;98.20
14079;DHT22;7115;50.150;8.568;2023-05-07T04:54:10;17.70;98.10
14079;DHT22;7115;50.150;8.568;2023-05-07T04:56:37;17.50;98.10
14079;DHT22;7115;50.150;8.568;2023-05-07T04:59:04;17.70;98.10
14079;DHT22;7115;50.150;8.568;2023-05-07T05:01:31;17.70;98.10
14079;DHT22;7115;50.150;8.568;2023-05-07T05:03:58;17.70;98.20
14079;DHT22;7115;50.150;8.568;2023-05-07T05:06:28;17.70;98.20
14079;DHT22;7115;50.150;8.568;2023-05-07T05:08:55;17.70;98.20
14079;DHT22;7115;50.150;8.568;2023-05-07T05:11:22;17.70;98.20
14079;DHT22;7115;50.150;8.568;2023-05-07T05:13:49;17.80;98.20
14079;DHT22;7115;50.150;8.568;2023-05-07T05:16:16;17.80;98.20
14079;DHT22;7115;50.150;8.568;2023-05-07T05:18:43;17.80;98.20
14079;DHT22;7115;50.150;8.568;2023-05-07T05:21:10;17.80;98.20
14079;DHT22;7115;50.150;8.568;2023-05-07T05:23:38;17.80;98.20
14079;DHT22;7115;50.150;8.568;2023-05-07T05:26:05;17.80;98.20
14079;DHT22;7115;50.150;8.568;2023-05-07T05:28:32;17.90;98.30
14079;DHT22;7115;50.150;8.568;2023-05-07T05:30:59;17.90;98.30
14079;DHT22;7115;50.150;8.568;2023-05-07T05:33:26;17.90;98.30
14079;DHT22;7115;50.150;8.568;2023-05-07T05:35:53;17.90;98.20
14079;DHT22;7115;50.150;8.568;2023-05-07T05:38:20;18.00;98.30
14079;DHT22;7115;50.150;8.568;2023-05-07T05:40:49;18.00;98.30
14079;DHT22;7115;50.150;8.568;2023-05-07T05:43:15;18.00;98.30
14079;DHT22;7115;50.150;8.568;2023-05-07T05:45:42;18.00;98.30
14079;DHT22;7115;50.150;8.568;2023-05-07T05:48:09;18.10;98.30
14079;DHT22;7115;50.150;8.568;2023-05-07T05:50:36;18.20;98.30
14079;DHT22;7115;50.150;8.568;2023-05-07T05:53:03;18.30;98.30
14079;DHT22;7115;50.150;8.568;2023-05-07T05:55:30;18.20;98.20
14079;DHT22;7115;50.150;8.568;2023-05-07T05:58:00;18.30;98.20
14079;DHT22;7115;50.150;8.568;2023-05-07T06:00:29;18.30;98.10
14079;DHT22;7115;50.150;8.568;2023-05-07T06:02:56;18.30;98.10
14079;DHT22;7115;50.150;8.568;2023-05-07T06:05:23;18.40;98.10
14079;DHT22;7115;50.150;8.568;2023-05-07T06:07:50;18.40;98.00
14079;DHT22;7115;50.150;8.568;2023-05-07T06:10:17;18.50;98.00
14079;DHT22;7115;50.150;8.568;2023-05-07T06:12:44;18.50;97.90
14079;DHT22;7115;50.150;8.568;2023-05-07T06:15:12;18.60;97.90
14079;DHT22;7115;50.150;8.568;2023-05-07T06:17:39;18.60;97.90
14079;DHT22;7115;50.150;8.568;2023-05-07T06:20:07;18.70;97.90
14079;DHT22;7115;50.150;8.568;2023-05-07T06:22:34;18.70;97.80
14079;DHT22;7115;50.150;8.568;2023-05-07T06:25:01;18.80;97.80
14079;DHT22;7115;50.150;8.568;2023-05-07T06:27:28;18.80;97.80
14079;DHT22;7115;50.150;8.568;2023-05-07T06:29:55;18.90;97.80
14079;DHT22;7115;50.150;8.568;2023-05-07T06:32:23;19.00;97.70
14079;DHT22;7115;50.150;8.568;2023-05-07T06:34:50;19.10;97.60
14079;DHT22;7115;50.150;8.568;2023-05-07T06:37:17;19.20;97.50
14079;DHT22;7115;50.150;8.568;2023-05-07T06:39:44;19.30;97.40
14079;DHT22;7115;50.150;8.568;2023-05-07T06:42:11;19.40;97.30
14079;DHT22;7115;50.150;8.568;2023-05-07T06:44:38;19.50;97.30
14079;DHT22;7115;50.150;8.568;2023-05-07T06:47:05;19.60;97.10
14079;DHT22;7115;50.150;8.568;2023-05-07T06:49:33;19.70;97.00
14079;DHT22;7115;50.150;8.568;2023-05-07T06:52:00;19.80;96.90
14079;DHT22;7115;50.150;8.568;2023-05-07T06:54:27;19.80;96.80
14079;DHT22;7115;50.150;8.568;2023-05-07T06:56:54;19.80;96.70
14079;DHT22;7115;50.150;8.568;2023-05-07T06:59:21;19.90;96.70
14079;DHT22;7115;50.150;8.568;2023-05-07T07:01:48;20.00;96.60
14079;DHT22;7115;50.150;8.568;2023-05-07T07:04:14;20.10;96.60
14079;DHT22;7115;50.150;8.568;2023-05-07T07:06:43;20.20;96.60
14079;DHT22;7115;50.150;8.568;2023-05-07T07:09:10;20.30;96.40
14079;DHT22;7115;50.150;8.568;2023-05-07T07:11:36;20.40;96.30
14079;DHT22;7115;50.150;8.568;2023-05-07T07:14:03;20.50;96.20
14079;DHT22;7115;50.150;8.568;2023-05-07T07:16:31;20.70;96.10
14079;DHT22;7115;50.150;8.568;2023-05-07T07:18:58;20.70;96.00
14079;DHT22;7115;50.150;8.568;2023-05-07T07:21:25;20.80;95.90
14079;DHT22;7115;50.150;8.568;2023-05-07T07:23:54;20.80;95.80
14079;DHT22;7115;50.150;8.568;2023-05-07T07:26:21;20.80;95.70
14079;DHT22;7115;50.150;8.568;2023-05-07T07:28:47;20.90;95.70
14079;DHT22;7115;50.150;8.568;2023-05-07T07:31:14;21.00;95.70
14079;DHT22;7115;50.150;8.568;2023-05-07T07:33:41;21.00;95.70
14079;DHT22;7115;50.150;8.568;2023-05-07T07:36:09;21.10;95.60
14079;DHT22;7115;50.150;8.568;2023-05-07T07:38:36;21.10;95.50
14079;DHT22;7115;50.150;8.568;2023-05-07T07:41:05;21.10;95.50
14079;DHT22;7115;50.150;8.568;2023-05-07T07:43:31;21.10;95.50
14079;DHT22;7115;50.150;8.568;2023-05-07T07:45:58;21.10;95.50
14079;DHT22;7115;50.150;8.568;2023-05-07T07:48:25;21.10;95.50
14079;DHT22;7115;50.150;8.568;2023-05-07T07:50:52;21.20;95.50
14079;DHT22;7115;50.150;8.568;2023-05-07T07:53:19;21.20;95.50
14079;DHT22;7115;50.150;8.568;2023-05-07T07:55:46;21.20;95.50
14079;DHT22;7115;50.150;8.568;2023-05-07T07:58:14;21.20;95.50
14079;DHT22;7115;50.150;8.568;2023-05-07T08:00:41;21.10;95.60
14079;DHT22;7115;50.150;8.568;2023-05-07T08:03:09;21.10;95.60
14079;DHT22;7115;50.150;8.568;2023-05-07T08:05:37;21.10;95.70
14079;DHT22;7115;50.150;8.568;2023-05-07T08:08:05;21.10;95.70
14079;DHT22;7115;50.150;8.568;2023-05-07T08:10:32;21.00;95.80
14079;DHT22;7115;50.150;8.568;2023-05-07T08:13:01;21.00;95.80
14079;DHT22;7115;50.150;8.568;2023-05-07T08:15:32;21.00;95.80
14079;DHT22;7115;50.150;8.568;2023-05-07T08:17:58;21.00;95.80
14079;DHT22;7115;50.150;8.568;2023-05-07T08:20:27;21.00;95.70
14079;DHT22;7115;50.150;8.568;2023-05-07T08:22:54;21.00;95.70
14079;DHT22;7115;50.150;8.568;2023-05-07T08:25:21;21.10;95.70
14079;DHT22;7115;50.150;8.568;2023-05-07T08:27:48;21.00;95.60
14079;DHT22;7115;50.150;8.568;2023-05-07T08:30:15;21.00;95.60
14079;DHT22;7115;50.150;8.568;2023-05-07T08:32:44;21.00;95.60
14079;DHT22;7115;50.150;8.568;2023-05-07T08:35:11;21.00;95.70
14079;DHT22;7115;50.150;8.568;2023-05-07T08:37:37;21.00;95.80
14079;DHT22;7115;50.150;8.568;2023-05-07T08:40:06;21.00;95.80
14079;DHT22;7115;50.150;8.568;2023-05-07T08:42:37;20.90;95.80
14079;DHT22;7115;50.150;8.568;2023-05-07T08:45:09;20.90;95.90
14079;DHT22;7115;50.150;8.568;2023-05-07T08:47:42;20.90;96.00
14079;DHT22;7115;50.150;8.568;2023-05-07T08:50:11;20.90;96.10
14079;DHT22;7115;50.150;8.568;2023-05-07T08:52:39;21.00;96.20
14079;DHT22;7115;50.150;8.568;2023-05-07T08:55:07;21.00;96.20
14079;DHT22;7115;50.150;8.568;2023-05-07T08:57:35;21.10;96.10
14079;DHT22;7115;50.150;8.568;2023-05-07T09:00:02;21.10;95.90
14079;DHT22;7115;50.150;8.568;2023-05-07T09:02:30;21.20;95.80
14079;DHT22;7115;50.150;8.568;2023-05-07T09:04:57;21.40;95.90
14079;DHT22;7115;50.150;8.568;2023-05-07T09:07:25;21.50;95.70
14079;DHT22;7115;50.150;8.568;2023-05-07T09:09:53;21.70;95.40
14079;DHT22;7115;50.150;8.568;2023-05-07T09:12:21;21.70;95.20
14079;DHT22;7115;50.150;8.568;2023-05-07T09:14:48;21.80;95.10
14079;DHT22;7115;50.150;8.568;2023-05-07T09:17:15;21.90;95.00
14079;DHT22;7115;50.150;8.568;2023-05-07T09:19:43;21.90;94.90
14079;DHT22;7115;50.150;8.568;2023-05-07T09:22:11;22.00;94.80
14079;DHT22;7115;50.150;8.568;2023-05-07T09:24:39;22.00;94.80
14079;DHT22;7115;50.150;8.568;2023-05-07T09:27:07;22.10;94.70
14079;DHT22;7115;50.150;8.568;2023-05-07T09:29:35;22.30;94.50
14079;DHT22;7115;50.150;8.568;2023-05-07T09:32:03;22.40;94.30
14079;DHT22;7115;50.150;8.568;2023-05-07T09:34:30;22.50;94.00
14079;DHT22;7115;50.150;8.568;2023-05-07T09:36:58;22.50;93.80
14079;DHT22;7115;50.150;8.568;2023-05-07T09:39:25;22.50;93.80
14079;DHT22;7115;50.150;8.568;2023-05-07T09:41:54;22.60;93.50
14079;DHT22;7115;50.150;8.568;2023-05-07T09:44:21;22.50;93.30
14079;DHT22;7115;50.150;8.568;2023-05-07T09:46:53;22.60;93.30
14079;DHT22;7115;50.150;8.568;2023-05-07T09:49:22;22.60;93.20
14079;DHT22;7115;50.150;8.568;2023-05-07T09:51:50;22.70;93.10
14079;DHT22;7115;50.150;8.568;2023-05-07T09:54:18;22.80;93.00
14079;DHT22;7115;50.150;8.568;2023-05-07T09:56:45;23.00;93.00
14079;DHT22;7115;50.150;8.568;2023-05-07T09:59:15;23.00;92.80
14079;DHT22;7115;50.150;8.568;2023-05-07T10:01:44;23.10;92.70
14079;DHT22;7115;50.150;8.568;2023-05-07T10:04:11;23.20;92.50
14079;DHT22;7115;50.150;8.568;2023-05-07T10:06:39;23.20;92.30
14079;DHT22;7115;50.150;8.568;2023-05-07T10:09:07;23.20;92.20
14079;DHT22;7115;50.150;8.568;2023-05-07T10:11:35;23.30;92.20
14079;DHT22;7115;50.150;8.568;2023-05-07T10:14:03;23.50;92.20
14079;DHT22;7115;50.150;8.568;2023-05-07T10:16:34;23.70;92.00
14079;DHT22;7115;50.150;8.568;2023-05-07T10:19:04;23.80;91.90
14079;DHT22;7115;50.150;8.568;2023-05-07T10:21:33;23.90;91.60
14079;DHT22;7115;50.150;8.568;2023-05-07T10:24:04;23.90;91.50
14079;DHT22;7115;50.150;8.568;2023-05-07T10:26:34;24.00;91.40
14079;DHT22;7115;50.150;8.568;2023-05-07T10:29:07;24.00;91.20
14079;DHT22;7115;50.150;8.568;2023-05-07T10:31:55;24.00;91.00
14079;DHT22;7115;50.150;8.568;2023-05-07T10:34:28;24.00;91.00
14079;DHT22;7115;50.150;8.568;2023-05-07T10:36:56;24.10;91.10
14079;DHT22;7115;50.150;8.568;2023-05-07T10:39:24;24.20;91.10
14079;DHT22;7115;50.150;8.568;2023-05-07T10:41:51;24.30;91.00
14079;DHT22;7115;50.150;8.568;2023-05-07T10:44:27;24.40;90.90
14079;DHT22;7115;50.150;8.568;2023-05-07T10:47:09;24.40;90.70
14079;DHT22;7115;50.150;8.568;2023-05-07T10:49:37;24.50;90.70
14079;DHT22;7115;50.150;8.568;2023-05-07T10:52:25;24.60;90.70
14079;DHT22;7115;50.150;8.568;2023-05-07T10:55:20;24.60;90.70
14079;DHT22;7115;50.150;8.568;2023-05-07T10:57:48;24.70;90.60
14079;DHT22;7115;50.150;8.568;2023-05-07T11:00:40;24.80;90.40
14079;DHT22;7115;50.150;8.568;2023-05-07T11:03:07;24.80;90.20
14079;DHT22;7115;50.150;8.568;2023-05-07T11:05:36;24.90;90.20
14079;DHT22;7115;50.150;8.568;2023-05-07T11:08:05;24.80;90.10
14079;DHT22;7115;50.150;8.568;2023-05-07T11:10:50;24.80;90.10
14079;DHT22;7115;50.150;8.568;2023-05-07T11:13:18;24.80;90.10
14079;DHT22;7115;50.150;8.568;2023-05-07T11:16:05;24.90;90.10
14079;DHT22;7115;50.150;8.568;2023-05-07T11:18:47;25.10;90.00
14079;DHT22;7115;50.150;8.568;2023-05-07T11:21:32;25.10;89.90
14079;DHT22;7115;50.150;8.568;2023-05-07T11:24:01;25.30;89.70
14079;DHT22;7115;50.150;8.568;2023-05-07T11:26:29;25.60;89.60
14079;DHT22;7115;50.150;8.568;2023-05-07T11:28:57;25.80;89.20
14079;DHT22;7115;50.150;8.568;2023-05-07T11:31:27;26.10;89.00
14079;DHT22;7115;50.150;8.568;2023-05-07T11:33:56;26.30;88.80
14079;DHT22;7115;50.150;8.568;2023-05-07T11:36:23;26.50;88.40
14079;DHT22;7115;50.150;8.568;2023-05-07T11:38:50;26.70;87.90
14079;DHT22;7115;50.150;8.568;2023-05-07T11:41:19;26.90;87.50
14079;DHT22;7115;50.150;8.568;2023-05-07T11:43:58;27.10;86.70
14079;DHT22;7115;50.150;8.568;2023-05-07T11:46:27;27.30;86.00
14079;DHT22;7115;50.150;8.568;2023-05-07T11:48:54;27.40;85.10
14079;DHT22;7115;50.150;8.568;2023-05-07T11:51:23;27.40;84.50
14079;DHT22;7115;50.150;8.568;2023-05-07T11:53:52;27.50;84.00
14079;DHT22;7115;50.150;8.568;2023-05-07T11:56:21;27.50;83.70
14079;DHT22;7115;50.150;8.568;2023-05-07T11:58:48;27.60;83.30
14079;DHT22;7115;50.150;8.568;2023-05-07T12:01:15;27.70;83.20
14079;DHT22;7115;50.150;8.568;2023-05-07T12:03:44;27.70;82.80
14079;DHT22;7115;50.150;8.568;2023-05-07T12:06:16;27.60;82.50
14079;DHT22;7115;50.150;8.568;2023-05-07T12:08:44;27.50;82.40
14079;DHT22;7115;50.150;8.568;2023-05-07T12:11:15;27.50;82.30
14079;DHT22;7115;50.150;8.568;2023-05-07T12:13:45;27.40;81.90
14079;DHT22;7115;50.150;8.568;2023-05-07T12:16:12;27.20;82.10
14079;DHT22;7115;50.150;8.568;2023-05-07T12:18:40;27.00;82.40
14079;DHT22;7115;50.150;8.568;2023-05-07T12:21:07;27.00;82.70
14079;DHT22;7115;50.150;8.568;2023-05-07T12:23:35;26.90;82.60
14079;DHT22;7115;50.150;8.568;2023-05-07T12:26:03;26.90;82.80
14079;DHT22;7115;50.150;8.568;2023-05-07T12:28:36;26.80;82.60
14079;DHT22;7115;50.150;8.568;2023-05-07T12:31:06;26.80;82.50
14079;DHT22;7115;50.150;8.568;2023-05-07T12:33:34;26.80;82.70
14079;DHT22;7115;50.150;8.568;2023-05-07T12:36:04;26.80;82.80
14079;DHT22;7115;50.150;8.568;2023-05-07T12:38:36;26.90;82.70
14079;DHT22;7115;50.150;8.568;2023-05-07T12:41:04;26.90;82.50
14079;DHT22;7115;50.150;8.568;2023-05-07T12:43:31;26.90;82.40
14079;DHT22;7115;50.150;8.568;2023-05-07T12:46:01;26.90;82.30
14079;DHT22;7115;50.150;8.568;2023-05-07T12:48:29;27.00;82.20
14079;DHT22;7115;50.150;8.568;2023-05-07T12:50:57;27.10;81.90
14079;DHT22;7115;50.150;8.568;2023-05-07T12:53:25;27.20;81.90
14079;DHT22;7115;50.150;8.568;2023-05-07T12:55:54;27.20;81.80
14079;DHT22;7115;50.150;8.568;2023-05-07T12:58:24;27.20;81.40
14079;DHT22;7115;50.150;8.568;2023-05-07T13:00:52;27.10;81.10
14079;DHT22;7115;50.150;8.568;2023-05-07T13:03:25;27.10;81.10
14079;DHT22;7115;50.150;8.568;2023-05-07T13:05:55;27.20;81.00
14079;DHT22;7115;50.150;8.568;2023-05-07T13:08:29;27.20;81.10
14079;DHT22;7115;50.150;8.568;2023-05-07T13:10:57;27.30;80.90
14079;DHT22;7115;50.150;8.568;2023-05-07T13:13:24;27.30;81.10
14079;DHT22;7115;50.150;8.568;2023-05-07T13:15:51;27.30;81.00
14079;DHT22;7115;50.150;8.568;2023-05-07T13:18:18;27.30;80.80
14079;DHT22;7115;50.150;8.568;2023-05-07T13:20:45;27.30;80.40
14079;DHT22;7115;50.150;8.568;2023-05-07T13:23:14;27.20;80.00
14079;DHT22;7115;50.150;8.568;2023-05-07T13:25:41;27.00;80.00
14079;DHT22;7115;50.150;8.568;2023-05-07T13:28:08;26.90;80.10
14079;DHT22;7115;50.150;8.568;2023-05-07T13:30:37;26.90;80.30
14079;DHT22;7115;50.150;8.568;2023-05-07T13:33:04;26.90;80.50
14079;DHT22;7115;50.150;8.568;2023-05-07T13:35:31;26.90;81.00
14079;DHT22;7115;50.150;8.568;2023-05-07T13:37:58;26.80;81.10
14079;DHT22;7115;50.150;8.568;2023-05-07T13:40:26;26.80;81.00
14079;DHT22;7115;50.150;8.568;2023-05-07T13:42:53;26.80;81.10
14079;DHT22;7115;50.150;8.568;2023-05-07T13:45:20;26.80;81.30
14079;DHT22;7115;50.150;8.568;2023-05-07T13:47:47;26.90;81.50
14079;DHT22;7115;50.150;8.568;2023-05-07T13:50:16;26.90;81.50
14079;DHT22;7115;50.150;8.568;2023-05-07T13:52:44;27.00;81.80
14079;DHT22;7115;50.150;8.568;2023-05-07T13:55:17;27.10;81.80
14079;DHT22;7115;50.150;8.568;2023-05-07T13:57:46;27.20;81.70
14079;DHT22;7115;50.150;8.568;2023-05-07T14:00:13;27.30;81.50
14079;DHT22;7115;50.150;8.568;2023-05-07T14:02:41;27.40;81.40
14079;DHT22;7115;50.150;8.568;2023-05-07T14:05:08;27.40;81.00
14079;DHT22;7115;50.150;8.568;2023-05-07T14:07:36;27.30;80.80
14079;DHT22;7115;50.150;8.568;2023-05-07T14:10:04;27.20;81.00
14079;DHT22;7115;50.150;8.568;2023-05-07T14:12:32;27.10;81.00
14079;DHT22;7115;50.150;8.568;2023-05-07T14:15:01;27.00;80.70
14079;DHT22;7115;50.150;8.568;2023-05-07T14:17:27;26.60;80.40
14079;DHT22;7115;50.150;8.568;2023-05-07T14:19:55;26.60;80.60
14079;DHT22;7115;50.150;8.568;2023-05-07T14:22:22;26.60;80.60
14079;DHT22;7115;50.150;8.568;2023-05-07T14:24:49;26.40;80.60
14079;DHT22;7115;50.150;8.568;2023-05-07T14:27:31;26.30;80.90
14079;DHT22;7115;50.150;8.568;2023-05-07T14:29:58;26.20;80.90
14079;DHT22;7115;50.150;8.568;2023-05-07T14:32:27;26.10;80.90
14079;DHT22;7115;50.150;8.568;2023-05-07T14:34:54;26.10;81.10
14079;DHT22;7115;50.150;8.568;2023-05-07T14:37:21;26.10;81.10
14079;DHT22;7115;50.150;8.568;2023-05-07T14:39:47;26.10;81.20
14079;DHT22;7115;50.150;8.568;2023-05-07T14:42:16;26.10;81.10
14079;DHT22;7115;50.150;8.568;2023-05-07T14:44:44;26.10;81.00
14079;DHT22;7115;50.150;8.568;2023-05-07T14:47:13;26.00;80.40
14079;DHT22;7115;50.150;8.568;2023-05-07T14:49:42;26.00;80.20
14079;DHT22;7115;50.150;8.568;2023-05-07T14:52:09;25.90;80.20
14079;DHT22;7115;50.150;8.568;2023-05-07T14:54:37;25.90;80.40
14079;DHT22;7115;50.150;8.568;2023-05-07T14:57:06;25.80;80.30
14079;DHT22;7115;50.150;8.568;2023-05-07T14:59:34;25.80;80.30
14079;DHT22;7115;50.150;8.568;2023-05-07T15:02:01;25.70;80.40
14079;DHT22;7115;50.150;8.568;2023-05-07T15:04:32;25.60;80.60
14079;DHT22;7115;50.150;8.568;2023-05-07T15:07:01;25.60;80.80
14079;DHT22;7115;50.150;8.568;2023-05-07T15:09:28;25.60;81.00
14079;DHT22;7115;50.150;8.568;2023-05-07T15:11:55;25.60;81.10
14079;DHT22;7115;50.150;8.568;2023-05-07T15:14:22;25.60;81.10
14079;DHT22;7115;50.150;8.568;2023-05-07T15:16:49;25.50;80.60
14079;DHT22;7115;50.150;8.568;2023-05-07T15:19:16;25.40;80.10
14079;DHT22;7115;50.150;8.568;2023-05-07T15:21:44;25.30;80.00
14079;DHT22;7115;50.150;8.568;2023-05-07T15:24:12;25.20;79.90
14079;DHT22;7115;50.150;8.568;2023-05-07T15:26:39;25.10;80.00
14079;DHT22;7115;50.150;8.568;2023-05-07T15:29:06;25.10;80.40
14079;DHT22;7115;50.150;8.568;2023-05-07T15:31:37;25.00;80.90
14079;DHT22;7115;50.150;8.568;2023-05-07T15:34:05;24.90;81.20
14079;DHT22;7115;50.150;8.568;2023-05-07T15:36:32;24.90;81.70
14079;DHT22;7115;50.150;8.568;2023-05-07T15:38:59;24.80;81.80
14079;DHT22;7115;50.150;8.568;2023-05-07T15:41:28;24.70;81.30
14079;DHT22;7115;50.150;8.568;2023-05-07T15:43:54;24.70;81.20
14079;DHT22;7115;50.150;8.568;2023-05-07T15:46:23;24.60;81.20
14079;DHT22;7115;50.150;8.568;2023-05-07T15:48:52;24.60;81.30
14079;DHT22;7115;50.150;8.568;2023-05-07T15:51:19;24.60;81.30